Time;durP1;ratioP1;P1;durP2;ratioP2;P2;SDS_P1;SDS_P2;PMS_P1;PMS_P2;Temp;Humidity;BMP_temperature;BMP_pressure;BME280_temperature;BME280_humidity;BME280_pressure;Samples;Min_cycle;Max_cycle;Signal;HPM_P1;HPM_P2
2021/10/13 00:01:24;;;;;;;14.10;10.60;;;;;;;;;;4936501;29;20115;-69
2021/10/13 00:03:50;;;;;;;17.90;11.13;;;;;;;;;;4935435;29;20024;-68
2021/10/13 00:06:18;;;;;;;15.45;10.52;;;;;;;;;;4938914;29;20024;-73
2021/10/13 00:08:44;;;;;;;13.20;10.50;;;;;;;;;;4931716;29;20035;-65
2021/10/13 00:11:10;;;;;;;15.13;10.93;;;;;;;;;;4928605;29;20032;-73
2021/10/13 00:13:36;;;;;;;15.15;10.93;;;;;;;;;;4936053;29;20565;-74
2021/10/13 00:16:04;;;;;;;15.05;11.07;;;;;;;;;;4936123;29;20031;-68
2021/10/13 00:18:30;;;;;;;14.50;10.45;;;;;;;;;;4936035;29;20020;-72
2021/10/13 00:20:58;;;;;;;13.02;10.70;;;;;;;;;;4935099;29;20108;-73
2021/10/13 00:23:24;;;;;;;14.75;10.10;;;;;;;;;;4936067;29;20508;-73
2021/10/13 00:25:50;;;;;;;13.77;10.10;;;;;;;;;;4935962;29;20058;-74
2021/10/13 00:28:19;;;;;;;15.55;10.63;;;;;;;;;;4935910;29;20051;-62
2021/10/13 00:30:47;;;;;;;15.60;10.57;;;;;;;;;;4935712;29;20023;-71
2021/10/13 00:33:13;;;;;;;11.90;10.45;;;;;;;;;;4935379;29;20031;-74
2021/10/13 00:35:39;;;;;;;17.38;10.88;;;;;;;;;;4935730;29;20505;-74
2021/10/13 00:38:05;;;;;;;14.85;10.40;;;;;;;;;;4944100;29;20028;-74
2021/10/13 00:40:31;;;;;;;15.18;10.65;;;;;;;;;;4936908;29;20385;-72
2021/10/13 00:42:57;;;;;;;12.90;10.98;;;;;;;;;;4944761;29;20024;-64
2021/10/13 00:45:24;;;;;;;14.93;10.73;;;;;;;;;;4935063;29;20036;-74
2021/10/13 00:47:50;;;;;;;16.13;11.27;;;;;;;;;;4935381;29;20047;-69
2021/10/13 00:50:16;;;;;;;16.75;11.32;;;;;;;;;;4935512;29;20028;-74
2021/10/13 00:52:43;;;;;;;16.40;12.00;;;;;;;;;;4949156;29;20027;-74
2021/10/13 00:55:17;;;;;;;17.67;12.90;;;;;;;;;;4935349;29;20051;-72
2021/10/13 00:57:43;;;;;;;;;;;;;;;;;;4942484;29;20066;-74
2021/10/13 01:00:09;;;;;;;17.63;12.30;;;;;;;;;;4944808;29;20443;-70
2021/10/13 01:02:41;;;;;;;17.35;12.27;;;;;;;;;;4929317;29;20398;-74
2021/10/13 01:05:18;;;;;;;16.33;12.23;;;;;;;;;;4934274;29;20036;-72
2021/10/13 01:07:52;;;;;;;18.00;12.65;;;;;;;;;;4934809;29;20151;-74
2021/10/13 01:10:22;;;;;;;20.08;12.48;;;;;;;;;;4934478;29;20156;-74
2021/10/13 01:13:00;;;;;;;16.48;12.30;;;;;;;;;;4937103;29;20032;-74
2021/10/13 01:15:56;;;;;;;21.88;12.10;;;;;;;;;;4934707;29;20028;-74
2021/10/13 01:18:28;;;;;;;17.85;12.75;;;;;;;;;;4918454;29;20115;-71
2021/10/13 01:21:23;;;;;;;17.65;12.43;;;;;;;;;;4934785;29;20067;-75
2021/10/13 01:24:28;;;;;;;15.60;11.80;;;;;;;;;;4914278;29;20110;-73
2021/10/13 01:27:13;;;;;;;17.15;11.45;;;;;;;;;;4857605;29;20389;-74
2021/10/13 01:29:40;;;;;;;18.35;12.57;;;;;;;;;;4857709;29;20050;-74
2021/10/13 01:32:15;;;;;;;16.20;12.43;;;;;;;;;;4856878;29;20049;-74
2021/10/13 01:34:42;;;;;;;18.48;13.02;;;;;;;;;;4860365;29;20064;-71
2021/10/13 01:37:12;;;;;;;16.85;12.55;;;;;;;;;;4853629;29;20823;-73
2021/10/13 01:39:43;;;;;;;17.13;13.20;;;;;;;;;;4857392;29;20098;-71
2021/10/13 01:42:11;;;;;;;19.42;13.20;;;;;;;;;;4857529;29;20033;-73
2021/10/13 01:44:38;;;;;;;18.38;13.43;;;;;;;;;;4856468;29;20056;-74
2021/10/13 01:47:05;;;;;;;17.85;13.43;;;;;;;;;;4857515;29;20030;-74
2021/10/13 01:49:32;;;;;;;20.63;13.85;;;;;;;;;;4857464;29;20045;-67
2021/10/13 01:51:58;;;;;;;17.88;13.52;;;;;;;;;;4857416;29;20124;-74
2021/10/13 01:54:25;;;;;;;18.55;14.57;;;;;;;;;;4856975;29;20033;-72
2021/10/13 01:56:53;;;;;;;20.13;13.90;;;;;;;;;;4865459;29;20048;-70
2021/10/13 01:59:22;;;;;;;17.13;13.30;;;;;;;;;;4933774;29;20082;-66
2021/10/13 02:01:50;;;;;;;19.50;14.05;;;;;;;;;;4947156;29;20035;-74
2021/10/13 02:04:16;;;;;;;18.20;13.98;;;;;;;;;;4934325;29;20043;-74
2021/10/13 02:06:43;;;;;;;21.38;13.98;;;;;;;;;;4934229;29;20036;-70
2021/10/13 02:09:10;;;;;;;20.92;14.60;;;;;;;;;;4935114;29;20030;-67
2021/10/13 02:11:36;;;;;;;17.30;13.93;;;;;;;;;;4934533;29;20393;-74
2021/10/13 02:14:04;;;;;;;15.27;13.15;;;;;;;;;;4934128;29;20031;-74
2021/10/13 02:16:32;;;;;;;19.20;13.93;;;;;;;;;;4933984;29;20163;-74
2021/10/13 02:19:00;;;;;;;17.33;14.73;;;;;;;;;;4933117;29;20063;-74
2021/10/13 02:21:27;;;;;;;20.42;15.13;;;;;;;;;;4940734;29;20032;-74
2021/10/13 02:23:55;;;;;;;22.08;15.25;;;;;;;;;;4934774;29;20038;-70
2021/10/13 02:26:30;;;;;;;21.38;14.70;;;;;;;;;;4941656;29;20443;-74
2021/10/13 02:28:58;;;;;;;20.25;14.48;;;;;;;;;;4935349;29;20044;-74
2021/10/13 02:31:25;;;;;;;21.85;15.10;;;;;;;;;;4937882;29;20043;-74
2021/10/13 02:33:51;;;;;;;21.58;16.20;;;;;;;;;;4941859;29;20089;-73
2021/10/13 02:36:17;;;;;;;23.60;15.88;;;;;;;;;;4935268;29;20032;-74
2021/10/13 02:38:43;;;;;;;19.73;15.27;;;;;;;;;;4933744;29;20106;-71
2021/10/13 02:41:09;;;;;;;23.35;15.80;;;;;;;;;;4937912;29;20028;-73
2021/10/13 02:43:36;;;;;;;21.70;16.05;;;;;;;;;;4943532;28;20039;-72
2021/10/13 02:46:11;;;;;;;21.70;16.35;;;;;;;;;;4943358;29;20038;-74
2021/10/13 02:48:37;;;;;;;23.38;15.77;;;;;;;;;;4939421;29;20094;-74
2021/10/13 02:51:10;;;;;;;19.98;14.73;;;;;;;;;;4936168;29;20031;-74
2021/10/13 02:53:53;;;;;;;24.90;15.30;;;;;;;;;;4936325;29;20035;-74
2021/10/13 02:56:25;;;;;;;18.47;15.30;;;;;;;;;;4946036;29;20039;-73
2021/10/13 02:59:02;;;;;;;22.13;14.80;;;;;;;;;;4937738;29;20083;-71
2021/10/13 03:01:34;;;;;;;20.27;14.75;;;;;;;;;;4939373;29;20398;-74
2021/10/13 03:04:03;;;;;;;20.83;14.55;;;;;;;;;;4937412;29;20047;-73
2021/10/13 03:06:30;;;;;;;19.23;15.40;;;;;;;;;;4937444;29;20615;-73
2021/10/13 03:08:57;;;;;;;20.52;14.75;;;;;;;;;;4936814;29;20106;-67
2021/10/13 03:11:24;;;;;;;19.60;15.30;;;;;;;;;;4936507;29;20422;-74
2021/10/13 03:13:51;;;;;;;24.95;15.05;;;;;;;;;;4937270;29;20062;-73
2021/10/13 03:16:19;;;;;;;22.23;15.65;;;;;;;;;;4937099;29;20027;-74
2021/10/13 03:18:46;;;;;;;22.42;15.35;;;;;;;;;;4936504;29;20043;-62
2021/10/13 03:21:12;;;;;;;23.13;16.15;;;;;;;;;;4936269;29;20546;-71
2021/10/13 03:23:38;;;;;;;23.63;15.90;;;;;;;;;;4937206;29;20474;-72
2021/10/13 03:26:11;;;;;;;23.20;15.60;;;;;;;;;;4938227;29;20389;-68
2021/10/13 03:28:38;;;;;;;22.60;15.82;;;;;;;;;;4932285;29;20067;-71
2021/10/13 03:31:04;;;;;;;22.02;16.38;;;;;;;;;;4937846;29;20024;-73
2021/10/13 03:33:30;;;;;;;21.27;15.35;;;;;;;;;;4937364;29;20590;-63
2021/10/13 03:35:56;;;;;;;21.77;15.63;;;;;;;;;;4936574;29;20034;-72
2021/10/13 03:38:22;;;;;;;24.00;16.50;;;;;;;;;;4936898;29;20434;-69
2021/10/13 03:40:48;;;;;;;19.83;15.27;;;;;;;;;;4940468;29;20032;-62
2021/10/13 03:43:14;;;;;;;22.42;15.30;;;;;;;;;;4936893;29;20115;-66
2021/10/13 03:45:41;;;;;;;22.02;15.80;;;;;;;;;;4931782;29;20050;-69
2021/10/13 03:48:07;;;;;;;24.27;16.45;;;;;;;;;;4936771;29;20023;-67
2021/10/13 03:50:33;;;;;;;21.83;16.02;;;;;;;;;;4942607;29;20023;-64
2021/10/13 03:52:59;;;;;;;21.70;15.23;;;;;;;;;;4935596;29;20114;-72
2021/10/13 03:55:25;;;;;;;19.90;15.05;;;;;;;;;;4935526;29;20374;-72
2021/10/13 03:57:51;;;;;;;21.20;15.40;;;;;;;;;;4936853;29;20036;-73
2021/10/13 04:00:21;;;;;;;24.35;16.10;;;;;;;;;;4937472;29;20061;-74
2021/10/13 04:02:50;;;;;;;23.25;15.00;;;;;;;;;;4929615;29;20055;-72
2021/10/13 04:05:16;;;;;;;23.48;16.08;;;;;;;;;;4937062;29;20036;-65
2021/10/13 04:07:42;;;;;;;23.58;16.20;;;;;;;;;;4936256;29;20561;-64
2021/10/13 04:10:10;;;;;;;25.77;16.17;;;;;;;;;;4937453;29;20031;-62
2021/10/13 04:12:36;;;;;;;22.42;16.42;;;;;;;;;;4936247;29;20042;-74
2021/10/13 04:15:07;;;;;;;19.98;15.32;;;;;;;;;;4936179;29;20035;-73
2021/10/13 04:17:33;;;;;;;22.58;16.38;;;;;;;;;;4936372;29;20512;-68
2021/10/13 04:20:03;;;;;;;23.63;15.63;;;;;;;;;;4936609;29;20395;-68
2021/10/13 04:22:29;;;;;;;23.77;15.38;;;;;;;;;;4935679;29;20024;-66
2021/10/13 04:24:57;;;;;;;24.27;15.88;;;;;;;;;;4935297;29;20493;-72
2021/10/13 04:27:26;;;;;;;22.98;16.23;;;;;;;;;;4935939;29;20247;-67
2021/10/13 04:29:52;;;;;;;23.52;15.80;;;;;;;;;;4936382;29;20027;-62
2021/10/13 04:32:22;;;;;;;23.35;16.00;;;;;;;;;;4936732;29;20035;-73
2021/10/13 04:34:49;;;;;;;23.75;15.38;;;;;;;;;;4927768;29;20103;-73
2021/10/13 04:37:15;;;;;;;25.42;16.60;;;;;;;;;;4935631;29;20079;-73
2021/10/13 04:39:41;;;;;;;21.25;15.73;;;;;;;;;;4934676;29;20729;-74
2021/10/13 04:42:07;;;;;;;24.13;16.50;;;;;;;;;;4935962;29;20067;-74
2021/10/13 04:44:33;;;;;;;27.10;17.08;;;;;;;;;;4937443;29;20119;-74
2021/10/13 04:46:59;;;;;;;23.58;17.65;;;;;;;;;;4935859;29;20031;-69
2021/10/13 04:49:25;;;;;;;23.98;17.67;;;;;;;;;;4935675;29;20437;-74
2021/10/13 04:51:51;;;;;;;27.40;17.30;;;;;;;;;;4936688;29;20166;-72
2021/10/13 04:54:19;;;;;;;24.90;17.08;;;;;;;;;;4935425;29;20382;-74
2021/10/13 04:56:45;;;;;;;26.70;17.83;;;;;;;;;;4934918;29;20028;-65
2021/10/13 04:59:11;;;;;;;23.52;17.13;;;;;;;;;;4935592;29;20047;-72
2021/10/13 05:01:37;;;;;;;23.67;17.52;;;;;;;;;;4936447;29;20024;-74
2021/10/13 05:04:03;;;;;;;25.73;18.00;;;;;;;;;;4942528;29;20039;-72
2021/10/13 05:06:31;;;;;;;22.73;17.23;;;;;;;;;;4939054;29;20028;-68
2021/10/13 05:08:57;;;;;;;26.83;17.70;;;;;;;;;;4936651;29;20062;-74
2021/10/13 05:11:23;;;;;;;26.92;18.48;;;;;;;;;;4935500;29;20035;-74
2021/10/13 05:13:50;;;;;;;32.55;18.08;;;;;;;;;;4931414;29;20539;-69
2021/10/13 05:16:16;;;;;;;28.15;18.42;;;;;;;;;;4936334;29;20031;-69
2021/10/13 05:18:42;;;;;;;30.33;18.40;;;;;;;;;;4934216;29;20462;-69
2021/10/13 05:21:08;;;;;;;27.20;17.98;;;;;;;;;;4934090;29;20038;-66
2021/10/13 05:23:34;;;;;;;31.83;18.42;;;;;;;;;;4934463;29;20036;-67
2021/10/13 05:26:00;;;;;;;30.65;20.42;;;;;;;;;;4930932;29;20044;-65
2021/10/13 05:28:26;;;;;;;101.07;62.97;;;;;;;;;;4932892;29;20070;-70
2021/10/13 05:30:54;;;;;;;49.60;32.42;;;;;;;;;;4940872;29;20055;-66
2021/10/13 05:33:20;;;;;;;32.85;21.77;;;;;;;;;;4939697;29;20149;-70
2021/10/13 05:35:48;;;;;;;23.27;17.00;;;;;;;;;;4934682;29;20024;-76
2021/10/13 05:38:15;;;;;;;27.55;17.73;;;;;;;;;;4935826;29;20038;-69
2021/10/13 05:40:41;;;;;;;28.67;18.55;;;;;;;;;;4932879;29;20032;-66
2021/10/13 05:43:07;;;;;;;29.98;17.85;;;;;;;;;;4934063;29;20016;-67
2021/10/13 05:45:33;;;;;;;30.95;19.10;;;;;;;;;;4934139;29;20036;-65
2021/10/13 05:47:59;;;;;;;25.27;18.77;;;;;;;;;;4933384;29;20031;-65
2021/10/13 05:50:25;;;;;;;27.13;18.42;;;;;;;;;;4936718;29;20063;-67
2021/10/13 05:52:51;;;;;;;26.40;17.70;;;;;;;;;;4934279;29;20039;-70
2021/10/13 05:55:17;;;;;;;23.67;18.13;;;;;;;;;;4938175;29;20043;-65
2021/10/13 05:57:43;;;;;;;26.23;16.77;;;;;;;;;;4924309;29;20528;-67
2021/10/13 06:00:10;;;;;;;23.08;16.60;;;;;;;;;;4933247;29;20049;-69
2021/10/13 06:02:36;;;;;;;25.88;18.20;;;;;;;;;;4933381;29;20030;-66
2021/10/13 06:05:02;;;;;;;39.90;20.17;;;;;;;;;;4934862;29;20048;-64
2021/10/13 06:07:29;;;;;;;33.63;19.88;;;;;;;;;;4934329;29;20031;-68
2021/10/13 06:09:55;;;;;;;31.40;19.48;;;;;;;;;;4935466;29;20528;-70
2021/10/13 06:12:23;;;;;;;31.05;18.95;;;;;;;;;;4932756;29;20032;-67
2021/10/13 06:14:49;;;;;;;29.65;19.17;;;;;;;;;;4939287;29;20512;-66
2021/10/13 06:17:20;;;;;;;29.23;20.02;;;;;;;;;;4934864;29;20028;-66
2021/10/13 06:19:46;;;;;;;30.20;18.40;;;;;;;;;;4940373;28;20030;-69
2021/10/13 06:22:12;;;;;;;29.00;17.88;;;;;;;;;;4935657;29;20052;-70
2021/10/13 06:24:39;;;;;;;28.33;18.73;;;;;;;;;;4942030;29;20094;-75
2021/10/13 06:27:15;;;;;;;29.02;18.60;;;;;;;;;;4940569;29;20020;-75
2021/10/13 06:29:41;;;;;;;47.95;22.90;;;;;;;;;;4967133;29;20063;-76
2021/10/13 06:32:21;;;;;;;39.90;22.38;;;;;;;;;;4952934;29;20032;-79
2021/10/13 06:34:56;;;;;;;31.80;20.38;;;;;;;;;;4955298;29;20035;-74
2021/10/13 06:37:30;;;;;;;33.63;17.73;;;;;;;;;;4950718;29;20108;-79
2021/10/13 06:39:56;;;;;;;;;;;;;;;;;;4959563;29;20075;-76
2021/10/13 06:42:22;;;;;;;25.02;15.55;;;;;;;;;;4954286;29;19913;-78
2021/10/13 06:44:48;;;;;;;27.83;16.30;;;;;;;;;;4944930;29;20191;-71
2021/10/13 06:47:14;;;;;;;28.08;16.25;;;;;;;;;;4948015;29;20037;-71
2021/10/13 06:49:46;;;;;;;22.30;14.80;;;;;;;;;;4955235;29;20020;-71
2021/10/13 06:52:12;;;;;;;36.28;19.65;;;;;;;;;;4960179;29;20027;-77
2021/10/13 06:54:38;;;;;;;33.65;16.45;;;;;;;;;;4960039;28;20039;-73
2021/10/13 06:57:06;;;;;;;26.27;15.52;;;;;;;;;;4961272;29;20050;-74
2021/10/13 06:59:32;;;;;;;21.67;14.45;;;;;;;;;;4939650;29;20024;-73
2021/10/13 07:02:14;;;;;;;19.90;13.95;;;;;;;;;;4943509;29;20011;-74
2021/10/13 07:04:41;;;;;;;31.25;16.08;;;;;;;;;;4941118;29;20048;-76
2021/10/13 07:07:08;;;;;;;24.20;14.50;;;;;;;;;;4936718;29;20179;-73
2021/10/13 07:09:45;;;;;;;18.83;13.68;;;;;;;;;;4952088;29;20031;-78
2021/10/13 07:12:13;;;;;;;19.27;14.27;;;;;;;;;;4956802;29;20031;-76
2021/10/13 07:14:54;;;;;;;30.92;22.30;;;;;;;;;;4948142;29;20031;-78
2021/10/13 07:17:44;;;;;;;89.47;63.00;;;;;;;;;;4963330;29;20031;-77
2021/10/13 07:20:24;;;;;;;48.08;29.13;;;;;;;;;;4954930;29;20050;-75
2021/10/13 07:22:53;;;;;;;75.65;53.67;;;;;;;;;;4962112;29;20470;-78
2021/10/13 07:25:25;;;;;;;60.50;36.17;;;;;;;;;;4934800;29;20039;-74
2021/10/13 07:28:00;;;;;;;96.45;65.90;;;;;;;;;;4952168;29;20047;-77
2021/10/13 07:30:41;;;;;;;61.60;46.92;;;;;;;;;;4924754;29;20032;-75
2021/10/13 07:33:07;;;;;;;36.15;28.40;;;;;;;;;;4930411;29;20059;-73
2021/10/13 07:35:33;;;;;;;41.55;25.38;;;;;;;;;;4940659;29;20036;-75
2021/10/13 07:38:24;;;;;;;24.02;14.05;;;;;;;;;;4945495;29;20028;-76
2021/10/13 07:51:57;;;;;;;136.38;62.35;;;;;;;;;;5120744;23;20090;-71
2021/10/13 07:54:24;;;;;;;26.73;18.63;;;;;;;;;;4972526;28;20106;-75
2021/10/13 07:56:50;;;;;;;21.98;16.23;;;;;;;;;;4992056;28;20090;-75
2021/10/13 08:02:28;;;;;;;23.50;19.65;;;;;;;;;;4972462;28;20030;-74
2021/10/13 08:04:54;;;;;;;46.13;34.28;;;;;;;;;;4961406;28;20142;-73
2021/10/13 08:07:20;;;;;;;25.83;17.52;;;;;;;;;;4980519;28;20031;-75
2021/10/13 08:09:47;;;;;;;22.33;16.70;;;;;;;;;;4987151;28;20033;-77
2021/10/13 08:12:13;;;;;;;25.38;16.60;;;;;;;;;;4969247;28;20430;-75
2021/10/13 08:14:39;;;;;;;28.85;20.73;;;;;;;;;;4982702;28;20034;-72
2021/10/13 08:17:07;;;;;;;24.08;17.55;;;;;;;;;;4959448;28;20094;-72
2021/10/13 08:19:33;;;;;;;19.80;14.25;;;;;;;;;;4970652;28;20385;-73
2021/10/13 08:21:59;;;;;;;20.83;13.63;;;;;;;;;;4958967;28;20019;-73
2021/10/13 08:24:25;;;;;;;16.30;12.95;;;;;;;;;;4974492;28;20085;-76
2021/10/13 08:26:51;;;;;;;19.92;12.98;;;;;;;;;;4974459;28;20027;-75
2021/10/13 08:29:17;;;;;;;28.30;16.88;;;;;;;;;;4973330;28;20023;-73
2021/10/13 08:31:43;;;;;;;28.55;18.25;;;;;;;;;;4969815;28;20500;-74
2021/10/13 08:34:09;;;;;;;21.55;15.75;;;;;;;;;;4973953;28;20042;-73
2021/10/13 08:36:35;;;;;;;18.73;15.07;;;;;;;;;;4973806;28;20031;-73
2021/10/13 08:39:01;;;;;;;18.38;14.63;;;;;;;;;;4975339;28;20065;-72
2021/10/13 08:41:28;;;;;;;19.52;14.57;;;;;;;;;;5003530;28;20023;-77
2021/10/13 08:44:18;;;;;;;21.35;15.27;;;;;;;;;;4990741;28;20030;-79
2021/10/13 08:49:40;;;;;;;25.05;18.83;;;;;;;;;;5238792;23;20066;-76
2021/10/13 08:52:13;;;;;;;20.63;13.77;;;;;;;;;;4994387;28;20034;-77
2021/10/13 08:54:40;;;;;;;22.30;15.38;;;;;;;;;;4969357;28;20031;-76
2021/10/13 08:57:23;;;;;;;27.08;16.67;;;;;;;;;;4997934;28;20023;-76
2021/10/13 08:59:50;;;;;;;18.03;13.33;;;;;;;;;;5020664;23;20109;-75
2021/10/13 09:02:17;;;;;;;22.00;12.60;;;;;;;;;;4982258;28;20027;-73
2021/10/13 09:05:02;;;;;;;20.60;13.48;;;;;;;;;;5299034;23;20459;-75
2021/10/13 09:07:28;;;;;;;20.90;15.55;;;;;;;;;;4941619;29;20024;-73
2021/10/13 09:09:54;;;;;;;20.15;14.48;;;;;;;;;;4919826;29;20490;-70
2021/10/13 09:12:30;;;;;;;19.35;15.30;;;;;;;;;;4934705;29;20094;-70
2021/10/13 09:15:08;;;;;;;16.20;13.38;;;;;;;;;;4917163;29;20067;-71
2021/10/13 09:17:53;;;;;;;24.02;15.20;;;;;;;;;;4935013;29;20024;-77
2021/10/13 09:20:20;;;;;;;20.90;16.15;;;;;;;;;;4958563;29;20055;-76
2021/10/13 09:28:41;;;;;;;20.20;14.10;;;;;;;;;;5639984;23;20036;-74
2021/10/13 09:31:22;;;;;;;17.55;12.93;;;;;;;;;;4947050;29;20099;-78
2021/10/13 09:33:59;;;;;;;17.23;12.65;;;;;;;;;;4920126;29;20706;-76
2021/10/13 09:36:37;;;;;;;19.40;13.55;;;;;;;;;;4937194;29;20050;-70
2021/10/13 09:39:04;;;;;;;22.48;14.45;;;;;;;;;;4937979;29;20031;-74
2021/10/13 09:41:30;;;;;;;25.73;14.60;;;;;;;;;;4917545;29;20028;-70
2021/10/13 09:44:12;;;;;;;26.75;15.68;;;;;;;;;;4934830;29;20047;-70
2021/10/13 09:46:38;;;;;;;20.38;13.40;;;;;;;;;;4928390;29;20031;-70
2021/10/13 09:49:05;;;;;;;25.05;16.70;;;;;;;;;;4931904;29;20038;-71
2021/10/13 09:51:37;;;;;;;22.70;15.20;;;;;;;;;;4931815;29;20030;-72
2021/10/13 09:54:07;;;;;;;25.17;17.40;;;;;;;;;;4937169;29;20122;-76
2021/10/13 09:56:44;;;;;;;15.32;11.60;;;;;;;;;;4955767;29;20142;-73
2021/10/13 09:59:20;;;;;;;16.55;10.60;;;;;;;;;;4935363;29;20035;-73
2021/10/13 10:02:11;;;;;;;16.27;12.18;;;;;;;;;;4932652;29;20036;-70
2021/10/13 10:04:40;;;;;;;18.42;11.93;;;;;;;;;;4950941;29;20043;-76
2021/10/13 10:07:12;;;;;;;;;;;;;;;;;;4934862;29;20040;-77
2021/10/13 10:13:11;;;;;;;15.20;10.23;;;;;;;;;;4954813;29;20103;-76
2021/10/13 10:15:43;;;;;;;15.10;11.23;;;;;;;;;;4931916;29;20039;-75
2021/10/13 10:18:34;;;;;;;13.07;10.55;;;;;;;;;;4933765;29;20028;-70
2021/10/13 10:21:16;;;;;;;14.20;11.57;;;;;;;;;;4945145;28;20457;-69
2021/10/13 10:23:43;;;;;;;16.38;11.02;;;;;;;;;;5279442;23;20061;-75
2021/10/13 10:26:29;;;;;;;19.55;11.95;;;;;;;;;;4961316;28;20031;-74
2021/10/13 10:28:59;;;;;;;17.48;11.50;;;;;;;;;;4996922;28;20082;-75
2021/10/13 10:31:28;;;;;;;17.48;11.52;;;;;;;;;;4973261;28;20023;-71
2021/10/13 10:34:03;;;;;;;14.30;11.25;;;;;;;;;;4973697;28;20061;-72
2021/10/13 10:39:58;;;;;;;14.43;12.00;;;;;;;;;;4968847;28;20039;-71
2021/10/13 10:42:44;;;;;;;14.65;10.88;;;;;;;;;;4895035;29;20045;-74
2021/10/13 10:45:27;;;;;;;14.30;11.05;;;;;;;;;;4899441;29;20067;-73
2021/10/13 10:48:05;;;;;;;14.80;11.80;;;;;;;;;;4912118;29;20120;-72
2021/10/13 10:50:38;;;;;;;16.23;13.80;;;;;;;;;;4928257;29;20041;-76
2021/10/13 10:53:09;;;;;;;18.15;13.88;;;;;;;;;;4907656;29;20045;-75
2021/10/13 10:55:39;;;;;;;19.52;15.63;;;;;;;;;;4888449;29;20181;-72
2021/10/13 10:58:16;;;;;;;19.27;16.38;;;;;;;;;;4908945;29;20526;-73
2021/10/13 11:00:43;;;;;;;24.50;19.40;;;;;;;;;;4893888;29;20056;-73
2021/10/13 11:03:22;;;;;;;21.58;17.27;;;;;;;;;;4892316;29;20466;-74
2021/10/13 11:05:49;;;;;;;38.28;22.45;;;;;;;;;;4895258;28;20108;-74
2021/10/13 11:08:17;;;;;;;38.42;23.60;;;;;;;;;;4899994;29;20507;-75
2021/10/13 11:10:46;;;;;;;41.67;25.23;;;;;;;;;;4881178;29;20074;-74
2021/10/13 11:13:15;;;;;;;33.95;27.10;;;;;;;;;;4913890;29;20024;-75
2021/10/13 11:15:41;;;;;;;33.88;26.85;;;;;;;;;;4895703;29;20036;-73
2021/10/13 11:18:16;;;;;;;21.63;18.45;;;;;;;;;;4901678;28;20491;-73
2021/10/13 11:20:43;;;;;;;23.13;18.23;;;;;;;;;;4977073;28;21380;-73
2021/10/13 11:23:11;;;;;;;21.00;16.77;;;;;;;;;;4962333;28;20030;-75
2021/10/13 11:25:37;;;;;;;23.05;17.13;;;;;;;;;;4983227;28;20042;-75
2021/10/13 11:28:03;;;;;;;22.55;17.85;;;;;;;;;;4994129;28;20030;-75
2021/10/13 11:30:31;;;;;;;22.17;18.25;;;;;;;;;;4994608;28;20025;-75
2021/10/13 11:32:57;;;;;;;22.77;18.85;;;;;;;;;;4986311;28;20019;-76
2021/10/13 11:35:24;;;;;;;25.58;19.13;;;;;;;;;;4962456;28;20031;-74
2021/10/13 11:37:58;;;;;;;18.45;15.73;;;;;;;;;;4982488;28;20078;-71
2021/10/13 11:40:26;;;;;;;24.70;16.95;;;;;;;;;;4981584;28;20035;-69
2021/10/13 11:43:10;;;;;;;19.40;16.08;;;;;;;;;;4970927;28;20026;-71
2021/10/13 11:45:49;;;;;;;33.38;23.65;;;;;;;;;;4973445;28;20054;-71
2021/10/13 11:48:30;;;;;;;22.27;15.90;;;;;;;;;;4977191;28;20030;-72
2021/10/13 11:51:00;;;;;;;21.23;15.68;;;;;;;;;;4978368;28;20501;-71
2021/10/13 11:53:26;;;;;;;23.80;15.93;;;;;;;;;;4972361;28;20080;-72
2021/10/13 11:56:02;;;;;;;21.27;16.63;;;;;;;;;;4976612;28;20023;-74
2021/10/13 11:58:34;;;;;;;21.10;16.92;;;;;;;;;;4983618;28;20043;-72
2021/10/13 12:01:01;;;;;;;23.02;16.50;;;;;;;;;;4949939;28;20044;-72
2021/10/13 12:03:43;;;;;;;25.98;18.50;;;;;;;;;;4991272;28;20042;-77
2021/10/13 12:11:26;;;;;;;20.10;16.25;;;;;;;;;;5278295;23;20082;-77
2021/10/13 12:13:52;;;;;;;20.42;14.57;;;;;;;;;;4984260;28;20034;-76
2021/10/13 12:16:22;;;;;;;18.20;13.95;;;;;;;;;;5010224;28;20030;-75
2021/10/13 12:18:48;;;;;;;34.08;20.92;;;;;;;;;;4989731;28;20085;-72
2021/10/13 12:21:19;;;;;;;18.20;12.40;;;;;;;;;;4970176;28;20555;-74
2021/10/13 12:23:52;;;;;;;21.45;13.55;;;;;;;;;;4981556;28;20089;-72
2021/10/13 12:26:20;;;;;;;13.75;10.02;;;;;;;;;;4955699;28;20385;-73
2021/10/13 12:28:56;;;;;;;20.52;12.02;;;;;;;;;;4986680;28;20030;-77
2021/10/13 12:31:23;;;;;;;21.95;15.98;;;;;;;;;;4979819;28;20046;-77
2021/10/13 12:33:53;;;;;;;18.90;13.48;;;;;;;;;;4988932;28;20393;-78
2021/10/13 12:36:23;;;;;;;10.20;8.65;;;;;;;;;;4989402;28;20026;-74
2021/10/13 12:38:53;;;;;;;16.00;9.45;;;;;;;;;;4985651;28;20030;-76
2021/10/13 12:41:19;;;;;;;10.48;7.70;;;;;;;;;;4980615;28;20029;-74
2021/10/13 12:43:50;;;;;;;9.55;7.68;;;;;;;;;;4981978;28;20089;-76
2021/10/13 12:46:20;;;;;;;7.32;5.88;;;;;;;;;;4986289;28;20071;-75
2021/10/13 12:48:46;;;;;;;8.27;5.38;;;;;;;;;;4966985;28;20370;-76
2021/10/13 12:51:13;;;;;;;7.20;4.85;;;;;;;;;;4965109;28;20050;-72
2021/10/13 12:53:39;;;;;;;6.53;4.72;;;;;;;;;;4978479;28;20162;-74
2021/10/13 12:56:33;;;;;;;7.07;4.55;;;;;;;;;;4981044;28;20027;-79
2021/10/13 13:04:55;;;;;;;5.80;4.55;;;;;;;;;;4964874;28;20134;-76
2021/10/13 13:07:39;;;;;;;7.07;4.78;;;;;;;;;;4963028;28;20062;-78
2021/10/13 13:10:05;;;;;;;7.00;4.50;;;;;;;;;;4933270;29;20070;-69
2021/10/13 13:12:32;;;;;;;5.00;3.75;;;;;;;;;;4953101;28;20028;-72
2021/10/13 13:14:58;;;;;;;6.20;3.70;;;;;;;;;;4954007;28;20023;-72
2021/10/13 13:20:04;;;;;;;5.90;4.00;;;;;;;;;;5347174;23;20053;-76
2021/10/13 13:22:34;;;;;;;5.38;3.80;;;;;;;;;;4982854;28;20006;-78
2021/10/13 13:25:07;;;;;;;5.90;4.05;;;;;;;;;;4990687;28;20038;-74
2021/10/13 13:27:33;;;;;;;7.68;5.07;;;;;;;;;;4962265;28;20042;-70
2021/10/13 13:30:03;;;;;;;9.43;6.22;;;;;;;;;;4956338;28;20031;-72
2021/10/13 13:32:30;;;;;;;9.98;6.43;;;;;;;;;;4973095;28;20027;-70
2021/10/13 13:34:56;;;;;;;10.60;8.23;;;;;;;;;;4973967;28;20023;-75
2021/10/13 13:37:22;;;;;;;10.02;4.88;;;;;;;;;;4970547;28;20026;-70
2021/10/13 13:39:48;;;;;;;8.85;5.40;;;;;;;;;;4975373;28;20042;-73
2021/10/13 13:42:14;;;;;;;9.07;5.82;;;;;;;;;;4973468;28;20125;-74
2021/10/13 13:44:40;;;;;;;9.27;5.00;;;;;;;;;;4969906;28;20046;-72
2021/10/13 13:47:06;;;;;;;6.53;4.40;;;;;;;;;;4953605;28;20437;-73
2021/10/13 13:49:32;;;;;;;7.65;4.30;;;;;;;;;;4973073;28;20477;-72
2021/10/13 13:51:58;;;;;;;7.60;4.35;;;;;;;;;;4973781;28;20027;-75
2021/10/13 13:54:24;;;;;;;7.93;5.35;;;;;;;;;;4973363;28;20031;-74
2021/10/13 13:56:51;;;;;;;9.25;5.70;;;;;;;;;;4973622;28;20039;-74
2021/10/13 13:59:17;;;;;;;7.75;5.57;;;;;;;;;;4972285;28;20139;-73
2021/10/13 14:01:43;;;;;;;9.15;5.82;;;;;;;;;;4974019;28;20412;-74
2021/10/13 14:04:09;;;;;;;9.30;5.28;;;;;;;;;;4972455;28;20044;-74
2021/10/13 14:06:35;;;;;;;10.63;6.68;;;;;;;;;;4971462;28;20035;-73
2021/10/13 14:09:01;;;;;;;17.02;9.13;;;;;;;;;;4972281;28;20029;-74
2021/10/13 14:11:27;;;;;;;25.25;13.07;;;;;;;;;;4972965;28;20466;-72
2021/10/13 14:13:54;;;;;;;28.48;14.88;;;;;;;;;;4972461;28;20023;-73
2021/10/13 14:16:25;;;;;;;17.13;9.02;;;;;;;;;;4976582;28;20033;-71
2021/10/13 14:18:53;;;;;;;13.27;7.82;;;;;;;;;;4979907;28;20509;-73
2021/10/13 14:21:22;;;;;;;15.65;7.18;;;;;;;;;;4974042;28;20030;-76
2021/10/13 14:23:52;;;;;;;19.50;7.90;;;;;;;;;;4955654;28;20035;-74
2021/10/13 14:26:19;;;;;;;11.95;6.70;;;;;;;;;;4972001;28;20039;-73
2021/10/13 14:28:45;;;;;;;10.55;6.45;;;;;;;;;;4965095;28;20023;-72
2021/10/13 14:31:13;;;;;;;31.98;16.05;;;;;;;;;;4980586;28;20035;-74
2021/10/13 14:33:42;;;;;;;22.70;10.77;;;;;;;;;;4959195;28;20019;-75
2021/10/13 14:36:08;;;;;;;9.80;5.97;;;;;;;;;;4968239;28;20080;-75
2021/10/13 14:38:36;;;;;;;9.65;4.70;;;;;;;;;;4955562;28;20110;-77
2021/10/13 14:41:02;;;;;;;9.32;4.78;;;;;;;;;;4970689;28;20050;-70
2021/10/13 14:43:28;;;;;;;12.45;7.28;;;;;;;;;;4993266;28;20038;-77
2021/10/13 14:45:57;;;;;;;21.02;10.45;;;;;;;;;;4970047;28;20069;-75
2021/10/13 14:48:37;;;;;;;6.13;4.57;;;;;;;;;;4991380;28;20019;-74
2021/10/13 14:51:04;;;;;;;10.07;5.40;;;;;;;;;;4959052;28;20082;-73
2021/10/13 14:53:30;;;;;;;7.82;5.03;;;;;;;;;;4972951;28;20588;-74
2021/10/13 14:56:01;;;;;;;11.50;6.80;;;;;;;;;;4965625;28;20035;-75
2021/10/13 14:58:27;;;;;;;17.15;9.88;;;;;;;;;;4999975;28;20039;-75
2021/10/13 15:00:53;;;;;;;9.38;5.68;;;;;;;;;;5000507;28;20038;-75
2021/10/13 15:03:19;;;;;;;9.40;5.05;;;;;;;;;;4995711;28;20019;-73
2021/10/13 15:05:45;;;;;;;9.75;5.15;;;;;;;;;;4978877;28;20189;-77
2021/10/13 15:08:12;;;;;;;10.23;4.70;;;;;;;;;;4959546;28;20030;-71
2021/10/13 15:10:38;;;;;;;9.18;5.97;;;;;;;;;;4961030;28;20038;-71
2021/10/13 15:13:04;;;;;;;17.60;11.15;;;;;;;;;;4959961;28;20049;-71
2021/10/13 15:15:30;;;;;;;9.20;3.90;;;;;;;;;;4981927;28;20022;-72
2021/10/13 15:17:56;;;;;;;19.65;10.95;;;;;;;;;;4976330;28;20026;-71